In Rescue
 
Open Full Screen Window  High Contrast Mode
Wind Gusting 00 knots
04
May 13, 2021 12:25 PM EDT
Weather Information
Wind Direction
  030 °
Wind Speed
  04 kt (5 mph)
Wind Gust
  00 kt (0 mph)
Altimeter
30.40 in
Visibility
10 SM
Temperature
17° C
63° F
Dewpoint
00° C
32° F
Humidity
32%
Sky Condition
Clear
VFR

METAR KAXV 131625Z AUTO 03004KT 10SM CLR 17/00 A3040 RMK AO2

FAA Disclaimer: The data displayed is for advisory purposes only and is not to be used for flight planning or operations.